Blue Star Paros — SVJH — position and weather

sailwx.info

Track history (hours):
 
Tides and Currents Weather Stations Pressure Air Temp Water Temp Dewpoint Dewpoint Depression Visibility Wind Speed Wind Dir Waves Ship Positions

Blue Star Paros

Last reported at 2017-Nov-23 09:30 UTC. Time now 2017-Nov-23 09:39 UTC.
Position N 37°56' E 023°37'.

Length 124 m; draft 5 m.

Type: Passenger vessel. MMSI: 239924000.

Date/timePositionNaut miles runAvg speedWind from/ knotsBaromVisibWave heightAir tempDewpointWater temp
2017-Nov-23 09:30N 37°56' E 023°37'0 0.0
2017-Nov-23 09:00N 37°56' E 023°37'0 0.0
2017-Nov-23 08:30N 37°56' E 023°37'3 5.6
2017-Nov-23 08:00N 37°54' E 023°38'1122.2
2017-Nov-23 07:30N 37°44' E 023°44'1221.1
2017-Nov-23 06:56N 37°37' E 023°57'1022.2
2017-Nov-23 06:30N 37°34' E 024°08'1122.2
2017-Nov-23 06:00N 37°30' E 024°21'1122.2
2017-Nov-23 05:30N 37°27' E 024°35'1122.4
2017-Nov-23 05:00N 37°23' E 024°48'1121.9
2017-Nov-23 04:30N 37°20' E 025°01'8317.4
2017-Nov-22 23:45N 37°13' E 026°45'520.8
2017-Nov-22 23:30N 37°08' E 026°47'3 3.9
2017-Nov-22 22:51N 37°06' E 026°49'  
2017-Nov-18 16:07N 37°38' E 023°46'419.3
2017-Nov-18 15:55N 37°40' E 023°43'819.6
2017-Nov-18 15:30N 37°48' E 023°38'917.5
2017-Nov-18 15:00N 37°56' E 023°37'0 0.0
2017-Nov-18 14:30N 37°56' E 023°37'0 0.0
2017-Nov-18 14:00N 37°56' E 023°37'0 0.0
2017-Nov-18 13:30N 37°56' E 023°37'0 0.1
2017-Nov-18 13:00N 37°56' E 023°37'0 0.1
2017-Nov-18 12:30N 37°56' E 023°37'0 0.0
2017-Nov-18 12:00N 37°56' E 023°37'0 0.0
2017-Nov-18 11:30N 37°56' E 023°37'0 0.0
2017-Nov-18 11:00N 37°56' E 023°37'0 0.0
2017-Nov-18 10:30N 37°56' E 023°37'816.6
2017-Nov-18 10:00N 37°49' E 023°41'5521.5
2017-Nov-18 07:26N 37°24' E 024°44'921.8
2017-Nov-18 07:00N 37°21' E 024°54'1121.7
2017-Nov-18 06:30N 37°18' E 025°08'1122.1
2017-Nov-18 06:00N 37°16' E 025°21'1422.2
2017-Nov-18 05:22N 37°13' E 025°39'822.1
2017-Nov-18 05:00N 37°11' E 025°48'1 0.0
2017-Nov-16 19:21N 37°10' E 025°48'719.7
2017-Nov-16 19:00N 37°12' E 025°40'1019.1
2017-Nov-16 18:30N 37°14' E 025°28'1019.2
2017-Nov-16 18:00N 37°16' E 025°16'1019.3
2017-Nov-16 17:30N 37°18' E 025°04'1019.4
2017-Nov-16 17:00N 37°21' E 024°52'5519.3
2017-Nov-16 14:09N 37°39' E 023°47'319.5
2017-Nov-16 14:00N 37°40' E 023°43'1019.3
2017-Nov-16 13:30N 37°49' E 023°38'815.8
2017-Nov-16 13:00N 37°56' E 023°37'0 0.0
2017-Nov-16 12:30N 37°56' E 023°37'0 0.0
2017-Nov-16 12:00N 37°56' E 023°37'0 0.0
2017-Nov-16 11:30N 37°56' E 023°37'0 0.0
2017-Nov-16 11:00N 37°56' E 023°37'0 0.0
2017-Nov-16 10:30N 37°56' E 023°37'0 0.0
2017-Nov-16 10:00N 37°56' E 023°37'0 0.0
2017-Nov-16 09:30N 37°56' E 023°37'0 0.0
2017-Nov-16 09:00N 37°56' E 023°37'0 0.0
2017-Nov-16 08:30N 37°56' E 023°37'0 1.0
2017-Nov-16 08:01N 37°56' E 023°37'1122.0
2017-Nov-16 07:31N 37°46' E 023°43'5321.7
2017-Nov-16 05:03N 37°24' E 024°44'122.6
2017-Nov-16 05:01N 37°24' E 024°45'1122.2
2017-Nov-16 04:31N 37°20' E 024°58'1122.4
2017-Nov-16 04:01N 37°20' E 025°12'1122.9
2017-Nov-16 03:30N 37°19' E 025°27'1122.5
2017-Nov-16 03:00N 37°18' E 025°41'10 0.3
2017-Nov-14 18:51N 37°17' E 025°53'821.6
2017-Nov-14 18:30N 37°18' E 025°43'1121.4
2017-Nov-14 18:00N 37°18' E 025°30'1121.3
2017-Nov-14 17:31N 37°19' E 025°17'1121.5
2017-Nov-14 17:00N 37°20' E 025°03'1121.2
2017-Nov-14 16:30N 37°22' E 024°50'5421.3
2017-Nov-14 14:00N 37°39' E 023°46'1020.4
2017-Nov-14 13:31N 37°47' E 023°39'1018.9
2017-Nov-14 13:00N 37°56' E 023°37'0 0.0
2017-Nov-14 12:30N 37°56' E 023°37'0 0.0
2017-Nov-14 12:00N 37°56' E 023°37'0 0.0
2017-Nov-14 11:30N 37°56' E 023°37'0 0.0
2017-Nov-14 11:00N 37°56' E 023°37'0 0.0
2017-Nov-14 10:30N 37°56' E 023°37'0 0.0
2017-Nov-14 10:00N 37°56' E 023°37'0 0.0
2017-Nov-14 09:30N 37°56' E 023°37'0 0.0
2017-Nov-14 09:00N 37°56' E 023°37'0 0.0
2017-Nov-14 08:30N 37°56' E 023°37'2 3.8
2017-Nov-14 08:00N 37°55' E 023°38'1122.7
2017-Nov-14 07:30N 37°44' E 023°44'1122.1
2017-Nov-14 07:00N 37°36' E 023°53'  
Track history (hours):
 
Tides and Currents Weather Stations Pressure Air Temp Water Temp Dewpoint Dewpoint Depression Visibility Wind Speed Wind Dir Waves Ship Positions

Blue Star Paros

Last reported at 2017-Nov-23 09:30 UTC. Time now 2017-Nov-23 09:39 UTC.
Position N 37°56' E 023°37'.

Length 124 m; draft 5 m.

Type: Passenger vessel. MMSI: 239924000.

Date/timePositionNaut miles runAvg speedWind from/ knotsBaromVisibWave heightAir tempDewpointWater temp
2017-Nov-23 09:30N 37°56' E 023°37'0 0.0
2017-Nov-23 09:00N 37°56' E 023°37'0 0.0
2017-Nov-23 08:30N 37°56' E 023°37'3 5.6
2017-Nov-23 08:00N 37°54' E 023°38'1122.2
2017-Nov-23 07:30N 37°44' E 023°44'1221.1
2017-Nov-23 06:56N 37°37' E 023°57'1022.2
2017-Nov-23 06:30N 37°34' E 024°08'1122.2
2017-Nov-23 06:00N 37°30' E 024°21'1122.2
2017-Nov-23 05:30N 37°27' E 024°35'1122.4
2017-Nov-23 05:00N 37°23' E 024°48'1121.9
2017-Nov-23 04:30N 37°20' E 025°01'8317.4
2017-Nov-22 23:45N 37°13' E 026°45'520.8
2017-Nov-22 23:30N 37°08' E 026°47'3 3.9
2017-Nov-22 22:51N 37°06' E 026°49'  
2017-Nov-18 16:07N 37°38' E 023°46'419.3
2017-Nov-18 15:55N 37°40' E 023°43'819.6
2017-Nov-18 15:30N 37°48' E 023°38'917.5
2017-Nov-18 15:00N 37°56' E 023°37'0 0.0
2017-Nov-18 14:30N 37°56' E 023°37'0 0.0
2017-Nov-18 14:00N 37°56' E 023°37'0 0.0
2017-Nov-18 13:30N 37°56' E 023°37'0 0.1
2017-Nov-18 13:00N 37°56' E 023°37'0 0.1
2017-Nov-18 12:30N 37°56' E 023°37'0 0.0
2017-Nov-18 12:00N 37°56' E 023°37'0 0.0
2017-Nov-18 11:30N 37°56' E 023°37'0 0.0
2017-Nov-18 11:00N 37°56' E 023°37'0 0.0
2017-Nov-18 10:30N 37°56' E 023°37'816.6
2017-Nov-18 10:00N 37°49' E 023°41'5521.5
2017-Nov-18 07:26N 37°24' E 024°44'921.8
2017-Nov-18 07:00N 37°21' E 024°54'1121.7
2017-Nov-18 06:30N 37°18' E 025°08'1122.1
2017-Nov-18 06:00N 37°16' E 025°21'1422.2
2017-Nov-18 05:22N 37°13' E 025°39'822.1
2017-Nov-18 05:00N 37°11' E 025°48'1 0.0
2017-Nov-16 19:21N 37°10' E 025°48'719.7
2017-Nov-16 19:00N 37°12' E 025°40'1019.1
2017-Nov-16 18:30N 37°14' E 025°28'1019.2
2017-Nov-16 18:00N 37°16' E 025°16'1019.3
2017-Nov-16 17:30N 37°18' E 025°04'1019.4
2017-Nov-16 17:00N 37°21' E 024°52'5519.3
2017-Nov-16 14:09N 37°39' E 023°47'319.5
2017-Nov-16 14:00N 37°40' E 023°43'1019.3
2017-Nov-16 13:30N 37°49' E 023°38'815.8
2017-Nov-16 13:00N 37°56' E 023°37'0 0.0
2017-Nov-16 12:30N 37°56' E 023°37'0 0.0
2017-Nov-16 12:00N 37°56' E 023°37'0 0.0
2017-Nov-16 11:30N 37°56' E 023°37'0 0.0
2017-Nov-16 11:00N 37°56' E 023°37'0 0.0
2017-Nov-16 10:30N 37°56' E 023°37'0 0.0
2017-Nov-16 10:00N 37°56' E 023°37'0 0.0
2017-Nov-16 09:30N 37°56' E 023°37'0 0.0
2017-Nov-16 09:00N 37°56' E 023°37'0 0.0
2017-Nov-16 08:30N 37°56' E 023°37'0 1.0
2017-Nov-16 08:01N 37°56' E 023°37'1122.0
2017-Nov-16 07:31N 37°46' E 023°43'5321.7
2017-Nov-16 05:03N 37°24' E 024°44'122.6
2017-Nov-16 05:01N 37°24' E 024°45'1122.2
2017-Nov-16 04:31N 37°20' E 024°58'1122.4
2017-Nov-16 04:01N 37°20' E 025°12'1122.9
2017-Nov-16 03:30N 37°19' E 025°27'1122.5
2017-Nov-16 03:00N 37°18' E 025°41'10 0.3
2017-Nov-14 18:51N 37°17' E 025°53'821.6
2017-Nov-14 18:30N 37°18' E 025°43'1121.4
2017-Nov-14 18:00N 37°18' E 025°30'1121.3
2017-Nov-14 17:31N 37°19' E 025°17'1121.5
2017-Nov-14 17:00N 37°20' E 025°03'1121.2
2017-Nov-14 16:30N 37°22' E 024°50'5421.3
2017-Nov-14 14:00N 37°39' E 023°46'1020.4
2017-Nov-14 13:31N 37°47' E 023°39'1018.9
2017-Nov-14 13:00N 37°56' E 023°37'0 0.0
2017-Nov-14 12:30N 37°56' E 023°37'0 0.0
2017-Nov-14 12:00N 37°56' E 023°37'0 0.0
2017-Nov-14 11:30N 37°56' E 023°37'0 0.0
2017-Nov-14 11:00N 37°56' E 023°37'0 0.0
2017-Nov-14 10:30N 37°56' E 023°37'0 0.0
2017-Nov-14 10:00N 37°56' E 023°37'0 0.0
2017-Nov-14 09:30N 37°56' E 023°37'0 0.0
2017-Nov-14 09:00N 37°56' E 023°37'0 0.0
2017-Nov-14 08:30N 37°56' E 023°37'2 3.8
2017-Nov-14 08:00N 37°55' E 023°38'1122.7
2017-Nov-14 07:30N 37°44' E 023°44'1122.1
2017-Nov-14 07:00N 37°36' E 023°53'  

Dump ship's entire track history